createdAt,value
2019-03-24T01:07:59.761Z,985.59
2019-03-24T01:09:03.640Z,985.59
2019-03-24T02:06:17.707Z,985.15
2019-03-24T02:06:55.980Z,985.11
2019-03-24T02:07:55.918Z,985.12
2019-03-24T02:08:57.475Z,985.09
2019-03-24T04:59:57.589Z,984.63
2019-03-24T05:45:15.523Z,984.54
2019-03-24T05:47:23.011Z,984.56
2019-03-24T05:55:12.012Z,984.48
2019-03-24T05:57:08.772Z,984.47
2019-03-24T05:58:15.323Z,984.46
2019-03-24T06:01:44.762Z,984.46
2019-03-24T06:09:42.997Z,984.50
2019-03-24T06:14:18.905Z,984.51
2019-03-24T06:16:14.212Z,984.48
2019-03-24T06:18:53.023Z,984.51
2019-03-24T06:22:25.421Z,984.49
2019-03-24T06:57:01.054Z,984.60
2019-03-24T07:35:57.178Z,984.62
2019-03-24T07:37:56.440Z,984.60
2019-03-24T07:38:56.456Z,984.60
2019-03-24T07:54:57.263Z,984.62
2019-03-24T10:28:56.619Z,983.16
2019-03-24T10:29:55.923Z,983.15
2019-03-24T10:30:56.027Z,983.10
2019-03-24T10:33:54.106Z,983.08
2019-03-24T10:36:28.555Z,983.03
2019-03-24T10:37:28.389Z,983.05
2019-03-24T10:38:28.233Z,983.02
2019-03-24T10:42:09.746Z,982.96
2019-03-24T10:44:00.877Z,982.95
2019-03-24T10:45:00.801Z,982.96
2019-03-24T10:46:00.766Z,982.94
2019-03-24T10:49:01.491Z,982.94
2019-03-24T10:50:00.313Z,982.95
2019-03-24T10:51:00.247Z,982.97
2019-03-24T10:52:00.196Z,982.98
2019-03-24T10:53:00.017Z,982.95
2019-03-24T10:53:59.983Z,982.98
2019-03-24T10:54:59.934Z,982.99
2019-03-24T10:55:59.936Z,982.98
2019-03-24T10:56:59.725Z,983.00
2019-03-24T10:57:59.697Z,982.99
2019-03-24T10:58:59.626Z,982.97
2019-03-24T10:59:59.551Z,982.97
2019-03-24T11:00:59.471Z,982.96
2019-03-24T11:01:59.344Z,982.95
2019-03-24T11:02:59.262Z,982.93
2019-03-24T11:03:59.230Z,982.90
2019-03-24T11:04:59.208Z,982.94
2019-03-24T11:05:59.041Z,982.92
2019-03-24T11:06:58.989Z,982.91
2019-03-24T11:07:58.937Z,982.91
2019-03-24T11:08:58.876Z,982.90
2019-03-24T11:09:58.790Z,982.88
2019-03-24T11:10:58.678Z,982.84
2019-03-24T11:11:58.616Z,982.87
2019-03-24T11:12:58.625Z,982.82
2019-03-24T11:13:58.546Z,982.84
2019-03-24T11:14:58.404Z,982.81
2019-03-24T11:15:59.615Z,982.79
2019-03-24T11:16:58.328Z,982.80
2019-03-24T11:17:58.283Z,982.79
2019-03-24T11:18:58.092Z,982.77
2019-03-24T11:19:58.070Z,982.74
2019-03-24T11:20:57.994Z,982.73
2019-03-24T11:21:57.869Z,982.70
2019-03-24T11:22:57.787Z,982.70
2019-03-24T11:23:57.716Z,982.69
2019-03-24T11:24:57.761Z,982.63
2019-03-24T11:25:57.567Z,982.69
2019-03-24T11:26:57.543Z,982.62
2019-03-24T11:27:57.414Z,982.61
2019-03-24T11:28:57.341Z,982.57
2019-03-24T11:29:57.327Z,982.63
2019-03-24T11:30:57.187Z,982.55
2019-03-24T11:31:57.175Z,982.52
2019-03-24T11:32:57.124Z,982.55
2019-03-24T11:33:57.136Z,982.51
2019-03-24T11:34:57.013Z,982.50
2019-03-24T11:35:56.832Z,982.51
2019-03-24T11:36:56.829Z,982.51
2019-03-24T11:37:56.700Z,982.51
2019-03-24T11:38:59.018Z,982.50
2019-03-24T11:39:56.613Z,982.46
2019-03-24T11:40:56.522Z,982.49
2019-03-24T11:41:56.469Z,982.47
2019-03-24T11:42:56.421Z,982.45
2019-03-24T11:43:56.307Z,982.44
2019-03-24T11:44:56.358Z,982.43
2019-03-24T11:45:56.172Z,982.43
2019-03-24T11:46:56.051Z,982.45
2019-03-24T11:47:56.000Z,982.40
2019-03-24T11:48:55.879Z,982.40
2019-03-24T11:49:55.998Z,982.38
2019-03-24T11:50:55.786Z,982.39
2019-03-24T11:51:55.713Z,982.36
2019-03-24T11:52:55.730Z,982.35
2019-03-24T11:53:55.584Z,982.35
2019-03-24T11:54:55.504Z,982.32
2019-03-24T11:55:55.495Z,982.30
2019-03-24T11:56:55.308Z,982.26
2019-03-24T11:58:05.366Z,982.26
2019-03-24T11:58:55.237Z,982.25
2019-03-24T11:59:55.173Z,982.26
2019-03-24T12:00:55.072Z,982.26
2019-03-24T12:01:55.052Z,982.27
2019-03-24T12:02:54.886Z,982.23
2019-03-24T12:03:54.825Z,982.24
2019-03-24T12:04:54.750Z,982.22
2019-03-24T12:05:54.738Z,982.18
2019-03-24T12:06:54.628Z,982.20
2019-03-24T12:07:54.598Z,982.14
2019-03-24T12:08:54.459Z,982.12
2019-03-24T12:09:54.394Z,982.16
2019-03-24T12:10:54.355Z,982.10
2019-03-24T12:11:54.251Z,982.10
2019-03-24T12:12:54.235Z,982.12
2019-03-24T12:13:54.184Z,982.10
2019-03-24T12:14:54.064Z,982.08
2019-03-24T12:15:54.084Z,982.09
2019-03-24T12:16:53.884Z,982.06
2019-03-24T12:17:53.819Z,982.05
2019-03-24T12:18:53.730Z,982.03
2019-03-24T12:19:56.905Z,982.04
2019-03-24T12:20:53.545Z,982.01
2019-03-24T12:21:53.481Z,982.02
2019-03-24T12:22:53.505Z,982.03
2019-03-24T12:23:53.381Z,981.97
2019-03-24T12:24:53.306Z,981.98
2019-03-24T12:25:53.329Z,981.98
2019-03-24T12:26:53.241Z,981.98
2019-03-24T12:27:53.046Z,981.95
2019-03-24T12:28:53.044Z,981.95
2019-03-24T12:29:53.004Z,981.93
2019-03-24T12:30:52.869Z,981.87
2019-03-24T12:31:52.783Z,981.88
2019-03-24T12:32:52.720Z,981.83
2019-03-24T12:33:52.666Z,981.85
2019-03-24T12:34:52.589Z,981.83
2019-03-24T12:35:52.461Z,981.84
2019-03-24T12:36:52.461Z,981.85
2019-03-24T12:37:52.322Z,981.84
2019-03-24T12:38:52.282Z,981.84
2019-03-24T12:39:52.258Z,981.81
2019-03-24T12:40:52.211Z,981.79
2019-03-24T12:41:52.157Z,981.78
2019-03-24T12:42:52.010Z,981.84
2019-03-24T12:43:51.966Z,981.78
2019-03-24T12:44:51.804Z,981.78
2019-03-24T12:45:51.838Z,981.78
2019-03-24T12:46:51.730Z,981.76
2019-03-24T12:47:51.605Z,981.77
2019-03-24T12:48:51.625Z,981.77
2019-03-24T12:49:51.477Z,981.74
2019-03-24T12:50:51.429Z,981.73
2019-03-24T12:51:51.343Z,981.68
2019-03-24T12:52:51.255Z,981.73
2019-03-24T12:53:51.176Z,981.71
2019-03-24T12:54:51.175Z,981.66
2019-03-24T12:55:51.098Z,981.67
2019-03-24T12:56:50.952Z,981.62
2019-03-24T12:57:50.862Z,981.58
2019-03-24T12:58:50.836Z,981.58
2019-03-24T12:59:50.871Z,981.55
2019-03-24T13:00:50.692Z,981.57
2019-03-24T13:01:52.822Z,981.52
2019-03-24T13:02:50.553Z,981.53
2019-03-24T13:03:50.440Z,981.53
2019-03-24T13:04:50.353Z,981.51
2019-03-24T13:05:50.345Z,981.54
2019-03-24T13:06:50.247Z,981.50
2019-03-24T13:07:50.211Z,981.53
2019-03-24T13:08:50.128Z,981.52
2019-03-24T13:09:50.121Z,981.51
2019-03-24T13:10:49.962Z,981.52
2019-03-24T13:11:49.913Z,981.51
2019-03-24T13:12:49.782Z,981.49
2019-03-24T13:13:49.755Z,981.48
2019-03-24T13:14:49.678Z,981.47
2019-03-24T13:15:49.607Z,981.47
2019-03-24T13:16:49.493Z,981.43
2019-03-24T13:17:49.501Z,981.46
2019-03-24T13:18:49.366Z,981.44
2019-03-24T13:19:49.302Z,981.41
2019-03-24T13:20:49.266Z,981.42
2019-03-24T13:21:49.152Z,981.39
2019-03-24T13:22:49.096Z,981.44
2019-03-24T13:23:49.079Z,981.39
2019-03-24T13:24:48.939Z,981.39
2019-03-24T13:25:50.524Z,981.37
2019-03-24T13:26:48.805Z,981.37
2019-03-24T13:27:48.725Z,981.34
2019-03-24T13:28:48.661Z,981.32
2019-03-24T13:29:48.584Z,981.31
2019-03-24T13:30:48.539Z,981.33
2019-03-24T13:31:49.007Z,981.34
2019-03-24T13:32:48.325Z,981.30
2019-03-24T13:33:48.302Z,981.29
2019-03-24T13:34:48.318Z,981.28
2019-03-24T13:35:48.202Z,981.29
2019-03-24T13:36:48.100Z,981.27
2019-03-24T13:37:48.081Z,981.24
2019-03-24T13:38:47.901Z,981.26
2019-03-24T13:39:47.943Z,981.29
2019-03-24T13:40:47.857Z,981.25
2019-03-24T13:41:47.677Z,981.23
2019-03-24T13:42:47.675Z,981.20
2019-03-24T13:43:47.557Z,981.19
2019-03-24T13:44:47.517Z,981.21
2019-03-24T13:45:47.380Z,981.19
2019-03-24T13:46:47.363Z,981.21
2019-03-24T13:47:47.265Z,981.23
2019-03-24T13:48:47.218Z,981.24
2019-03-24T13:49:47.134Z,981.20
2019-03-24T13:50:47.131Z,981.24
2019-03-24T13:51:47.036Z,981.25
2019-03-24T13:52:46.925Z,981.22
2019-03-24T13:53:46.827Z,981.19
2019-03-24T13:54:46.766Z,981.18
2019-03-24T13:55:46.655Z,981.10
2019-03-24T13:56:46.612Z,981.19
2019-03-24T13:57:46.614Z,981.21
2019-03-24T13:58:46.466Z,981.17
2019-03-24T13:59:46.419Z,981.19
2019-03-24T14:00:46.337Z,981.13
2019-03-24T14:01:46.251Z,981.13
2019-03-24T14:02:46.131Z,981.11
2019-03-24T14:03:46.118Z,981.15
2019-03-24T14:04:47.535Z,981.11
2019-03-24T14:05:45.983Z,981.09
2019-03-24T14:06:45.879Z,981.09
2019-03-24T14:07:45.898Z,981.08
2019-03-24T14:08:45.732Z,981.09
2019-03-24T14:09:45.721Z,981.05
2019-03-24T14:10:45.616Z,981.06
2019-03-24T14:11:45.557Z,981.07
2019-03-24T14:12:45.481Z,981.04
2019-03-24T14:13:45.421Z,981.06
2019-03-24T14:14:45.302Z,981.05
2019-03-24T14:15:45.299Z,981.05
2019-03-24T14:16:46.567Z,981.07
2019-03-24T14:17:45.053Z,981.09
2019-03-24T14:18:45.010Z,981.09
2019-03-24T14:19:44.872Z,981.09
2019-03-24T14:20:44.847Z,981.13
2019-03-24T14:21:44.809Z,981.10
2019-03-24T14:22:44.748Z,981.05
2019-03-24T14:23:44.651Z,981.08
2019-03-24T14:24:44.558Z,981.07
2019-03-24T14:25:44.469Z,981.01
2019-03-24T14:26:44.427Z,981.00
2019-03-24T14:27:44.371Z,981.04
2019-03-24T14:28:44.210Z,981.06
2019-03-24T14:29:44.149Z,981.02
2019-03-24T14:30:44.149Z,981.07
2019-03-24T14:31:44.040Z,981.06
2019-03-24T14:32:44.013Z,981.11
2019-03-24T14:33:43.914Z,981.09
2019-03-24T14:34:43.918Z,981.05
2019-03-24T14:35:43.839Z,981.05
2019-03-24T14:36:43.675Z,981.08
2019-03-24T14:37:43.649Z,981.04
2019-03-24T14:38:43.532Z,981.02
2019-03-24T14:39:43.587Z,981.03
2019-03-24T14:40:43.388Z,981.05
2019-03-24T14:41:43.300Z,981.06
2019-03-24T14:42:43.187Z,981.08
2019-03-24T14:43:43.204Z,981.08
2019-03-24T14:44:43.112Z,981.13
2019-03-24T14:45:43.031Z,981.07
2019-03-24T14:46:43.000Z,981.09
2019-03-24T14:47:42.899Z,981.08
2019-03-24T14:48:42.807Z,981.13
2019-03-24T14:49:42.695Z,981.17
2019-03-24T14:50:53.637Z,981.14
2019-03-24T14:51:42.579Z,981.12
2019-03-24T14:52:42.460Z,981.14
2019-03-24T14:53:42.424Z,981.20
2019-03-24T14:54:42.405Z,981.17
2019-03-24T14:55:42.215Z,981.15
2019-03-24T14:56:42.238Z,981.13
2019-03-24T14:57:42.099Z,981.12
2019-03-24T14:58:42.001Z,981.08
2019-03-24T14:59:41.915Z,981.11
2019-03-24T15:00:41.859Z,981.12
2019-03-24T15:01:41.775Z,981.15
2019-03-24T15:02:41.743Z,981.14
2019-03-24T15:03:41.670Z,981.17
2019-03-24T15:04:41.561Z,981.18
2019-03-24T15:05:41.478Z,981.19
2019-03-24T15:06:41.408Z,981.16
2019-03-24T15:07:41.323Z,981.18
2019-03-24T15:08:41.249Z,981.20
2019-03-24T15:09:41.219Z,981.21
2019-03-24T15:10:41.189Z,981.24
2019-03-24T15:11:41.033Z,981.22
2019-03-24T15:12:40.960Z,981.23
2019-03-24T15:13:40.956Z,981.28
2019-03-24T15:14:40.815Z,981.24
2019-03-24T15:15:40.775Z,981.30
2019-03-24T15:16:40.674Z,981.30
2019-03-24T15:17:40.590Z,981.27
2019-03-24T15:18:40.562Z,981.27
2019-03-24T15:19:40.435Z,981.20
2019-03-24T15:20:40.462Z,981.24
2019-03-24T15:21:40.296Z,981.17
2019-03-24T15:22:40.255Z,981.18
2019-03-24T15:23:40.138Z,981.23
2019-03-24T15:24:40.125Z,981.21
2019-03-24T15:25:40.034Z,981.21
2019-03-24T15:26:39.923Z,981.20
2019-03-24T15:27:39.879Z,981.17
2019-03-24T15:28:39.769Z,981.23
2019-03-24T15:29:39.764Z,981.23
2019-03-24T15:30:39.658Z,981.21
2019-03-24T15:31:39.544Z,981.21
2019-03-24T15:32:39.471Z,981.17
2019-03-24T15:33:39.395Z,981.14
2019-03-24T15:34:39.331Z,981.18
2019-03-24T15:35:39.246Z,981.16
2019-03-24T15:36:39.181Z,981.20
2019-03-24T15:37:39.180Z,981.16
2019-03-24T15:38:39.038Z,981.17
2019-03-24T15:39:38.998Z,981.19
2019-03-24T15:40:38.928Z,981.20
2019-03-24T15:41:38.861Z,981.23
2019-03-24T15:42:38.775Z,981.18
2019-03-24T15:43:41.047Z,981.21
2019-03-24T15:44:38.614Z,981.22
2019-03-24T15:45:38.502Z,981.26
2019-03-24T15:46:38.425Z,981.26
2019-03-24T15:47:38.395Z,981.27
2019-03-24T15:48:38.277Z,981.28
2019-03-24T15:49:38.204Z,981.29
2019-03-24T15:50:38.128Z,981.34
2019-03-24T15:51:38.130Z,981.31
2019-03-24T15:52:37.992Z,981.36
2019-03-24T15:53:37.908Z,981.38
2019-03-24T15:54:37.885Z,981.33
2019-03-24T15:55:37.757Z,981.37
2019-03-24T15:56:37.693Z,981.43
2019-03-24T15:57:37.622Z,981.37
2019-03-24T15:58:37.560Z,981.32
2019-03-24T15:59:37.467Z,981.38
2019-03-24T16:00:37.391Z,981.42
2019-03-24T16:01:37.355Z,981.43
2019-03-24T16:02:37.256Z,981.46
2019-03-24T16:03:37.188Z,981.45
2019-03-24T16:04:37.094Z,981.46
2019-03-24T16:05:37.018Z,981.46
2019-03-24T16:06:36.992Z,981.43
2019-03-24T16:07:36.860Z,981.40
2019-03-24T16:08:36.796Z,981.46
2019-03-24T16:09:36.708Z,981.46
2019-03-24T16:10:36.688Z,981.45
2019-03-24T16:11:36.580Z,981.45
2019-03-24T16:12:36.481Z,981.45
2019-03-24T16:13:36.413Z,981.47
2019-03-24T16:14:36.381Z,981.47
2019-03-24T16:15:36.318Z,981.48
2019-03-24T16:16:36.212Z,981.45
2019-03-24T16:17:36.158Z,981.46
2019-03-24T16:18:36.035Z,981.44
2019-03-24T16:19:36.004Z,981.44
2019-03-24T16:20:35.947Z,981.42
2019-03-24T16:21:35.938Z,981.47
2019-03-24T16:22:35.738Z,981.46
2019-03-24T16:23:35.658Z,981.48
2019-03-24T16:24:35.582Z,981.50
2019-03-24T16:25:35.562Z,981.51
2019-03-24T16:26:35.428Z,981.52
2019-03-24T16:27:35.396Z,981.52
2019-03-24T16:28:35.315Z,981.50
2019-03-24T16:29:35.208Z,981.53
2019-03-24T16:30:35.125Z,981.52
2019-03-24T16:31:35.049Z,981.49
2019-03-24T16:32:34.994Z,981.43
2019-03-24T16:33:34.997Z,981.45
2019-03-24T16:34:34.826Z,981.42
2019-03-24T16:35:34.796Z,981.46
2019-03-24T16:36:34.678Z,981.49
2019-03-24T16:37:34.649Z,981.55
2019-03-24T16:38:34.528Z,981.52
2019-03-24T16:39:34.447Z,981.55
2019-03-24T16:40:34.427Z,981.54
2019-03-24T16:41:34.301Z,981.54
2019-03-24T16:42:34.223Z,981.52
2019-03-24T16:43:34.230Z,981.50
2019-03-24T16:44:34.071Z,981.50
2019-03-24T16:45:33.992Z,981.48
2019-03-24T16:46:33.913Z,981.49
2019-03-24T16:47:33.892Z,981.47
2019-03-24T16:48:37.086Z,981.48
2019-03-24T16:49:33.692Z,981.43
2019-03-24T16:50:33.613Z,981.44
2019-03-24T16:51:38.482Z,981.38
2019-03-24T16:52:33.474Z,981.41
2019-03-24T16:53:33.419Z,981.41
2019-03-24T16:54:33.307Z,981.45
2019-03-24T16:55:33.246Z,981.44
2019-03-24T16:56:33.175Z,981.45
2019-03-24T16:57:33.086Z,981.45
2019-03-24T16:58:33.009Z,981.43
2019-03-24T16:59:32.929Z,981.48
2019-03-24T17:00:32.842Z,981.47
2019-03-24T17:01:32.766Z,981.43
2019-03-24T17:02:32.698Z,981.44
2019-03-24T17:03:32.620Z,981.43
2019-03-24T17:04:32.569Z,981.47
2019-03-24T17:05:32.465Z,981.43
2019-03-24T17:06:32.397Z,981.45
2019-03-24T17:07:32.379Z,981.48
2019-03-24T17:08:32.285Z,981.48
2019-03-24T17:09:32.177Z,981.49
2019-03-24T17:10:32.080Z,981.49
2019-03-24T17:11:32.002Z,981.51
2019-03-24T17:12:31.931Z,981.52
2019-03-24T17:13:31.887Z,981.57
2019-03-24T17:14:31.833Z,981.60
2019-03-24T17:15:31.707Z,981.56
2019-03-24T17:16:31.637Z,981.58
2019-03-24T17:17:31.636Z,981.58
2019-03-24T17:18:31.513Z,981.56
2019-03-24T17:19:31.421Z,981.58
2019-03-24T17:20:31.313Z,981.58
2019-03-24T17:21:31.251Z,981.55
2019-03-24T17:22:31.220Z,981.60
2019-03-24T17:23:31.154Z,981.56
2019-03-24T17:24:31.107Z,981.55
2019-03-24T17:25:30.938Z,981.57
2019-03-24T17:26:30.910Z,981.56
2019-03-24T17:27:30.781Z,981.59
2019-03-24T17:28:30.710Z,981.60
2019-03-24T17:29:30.647Z,981.63
2019-03-24T17:30:30.563Z,981.60
2019-03-24T17:31:30.502Z,981.61
2019-03-24T17:32:30.401Z,981.64
2019-03-24T17:33:30.326Z,981.64
2019-03-24T17:34:30.298Z,981.62
2019-03-24T17:35:30.186Z,981.63
2019-03-24T17:36:30.143Z,981.63
2019-03-24T17:37:30.135Z,981.63
2019-03-24T17:38:29.944Z,981.62
2019-03-24T17:39:29.867Z,981.63
2019-03-24T17:40:29.797Z,981.65
2019-03-24T17:41:29.714Z,981.62
2019-03-24T17:42:29.624Z,981.62
2019-03-24T17:43:29.593Z,981.66
2019-03-24T17:44:29.476Z,981.66
2019-03-24T17:45:29.396Z,981.67
2019-03-24T17:46:29.322Z,981.68
2019-03-24T17:47:29.250Z,981.64
2019-03-24T17:48:29.175Z,981.68
2019-03-24T17:49:29.139Z,981.67
2019-03-24T17:50:29.055Z,981.66
2019-03-24T17:51:28.942Z,981.68
2019-03-24T17:52:28.911Z,981.69
2019-03-24T17:53:28.829Z,981.72
2019-03-24T17:54:28.705Z,981.73
2019-03-24T17:55:30.955Z,981.75
2019-03-24T17:56:28.563Z,981.76
2019-03-24T17:57:28.479Z,981.75
2019-03-24T17:58:28.793Z,981.76
2019-03-24T18:23:54.506Z,981.89
2019-03-24T19:14:00.185Z,981.94
2019-03-24T19:14:55.296Z,981.95
2019-03-24T19:15:54.234Z,981.92
2019-03-24T19:16:54.071Z,981.94
2019-03-24T19:18:53.259Z,981.97
2019-03-24T19:20:56.285Z,981.94
2019-03-24T19:21:50.487Z,981.94
2019-03-24T19:22:55.583Z,981.92
2019-03-24T19:24:52.669Z,981.92
2019-03-24T19:25:50.103Z,981.88
2019-03-24T19:26:49.993Z,981.88
2019-03-24T19:27:49.845Z,981.81
2019-03-24T19:28:49.764Z,981.79
2019-03-24T19:29:49.659Z,981.79
2019-03-24T19:30:49.654Z,981.75
2019-03-24T19:31:49.524Z,981.71
2019-03-24T19:32:49.487Z,981.75
2019-03-24T19:33:49.432Z,981.74
2019-03-24T19:34:49.332Z,981.77
2019-03-24T19:35:49.197Z,981.78
2019-03-24T19:36:49.211Z,981.79
2019-03-24T19:37:49.033Z,981.80
2019-03-24T19:38:48.954Z,981.83
2019-03-24T19:39:48.885Z,981.76
2019-03-24T19:40:48.832Z,981.81
2019-03-24T19:41:48.708Z,981.84
2019-03-24T19:42:48.638Z,981.86
2019-03-24T19:43:48.600Z,981.85
2019-03-24T19:44:48.492Z,981.89
2019-03-24T19:45:48.407Z,981.89
2019-03-24T19:46:48.410Z,981.88
2019-03-24T19:47:48.260Z,981.86
2019-03-24T19:48:48.214Z,981.85
2019-03-24T19:49:48.081Z,981.80
2019-03-24T19:50:48.016Z,981.81
2019-03-24T19:51:47.994Z,981.79
2019-03-24T19:52:47.895Z,981.82
2019-03-24T19:53:47.838Z,981.76
2019-03-24T19:54:47.694Z,981.76
2019-03-24T19:55:47.615Z,981.74
2019-03-24T19:56:47.535Z,981.73
2019-03-24T19:57:47.528Z,981.72
2019-03-24T19:58:47.373Z,981.72
2019-03-24T19:59:47.345Z,981.71
2019-03-24T20:00:47.295Z,981.66
2019-03-24T20:01:47.195Z,981.68
2019-03-24T20:02:47.075Z,981.69
2019-03-24T20:03:46.994Z,981.69
2019-03-24T20:04:46.964Z,981.66
2019-03-24T20:05:46.887Z,981.69
2019-03-24T20:06:46.759Z,981.68
2019-03-24T20:07:48.221Z,981.69
2019-03-24T20:08:46.633Z,981.69
2019-03-24T20:09:46.512Z,981.71
2019-03-24T20:10:46.442Z,981.71
2019-03-24T20:11:46.465Z,981.75
2019-03-24T20:12:46.299Z,981.73
2019-03-24T20:13:46.218Z,981.68
2019-03-24T20:14:46.127Z,981.70
2019-03-24T20:15:46.062Z,981.72
2019-03-24T20:16:45.965Z,981.64
2019-03-24T20:17:45.950Z,981.70
2019-03-24T20:18:45.851Z,981.67
2019-03-24T20:19:45.804Z,981.67
2019-03-24T20:20:45.768Z,981.68
2019-03-24T20:21:45.635Z,981.67
2019-03-24T20:22:55.947Z,981.65
2019-03-24T20:23:45.429Z,981.62
2019-03-24T20:24:45.350Z,981.64
2019-03-24T20:25:45.314Z,981.64
2019-03-24T20:26:45.240Z,981.62
2019-03-24T20:27:45.142Z,981.61
2019-03-24T20:28:45.076Z,981.62
2019-03-24T20:29:44.949Z,981.59
2019-03-24T20:30:44.867Z,981.60
2019-03-24T20:31:44.870Z,981.56
2019-03-24T20:32:44.762Z,981.54
2019-03-24T20:33:44.679Z,981.56
2019-03-24T20:34:44.604Z,981.56
2019-03-24T20:35:44.483Z,981.56
2019-03-24T20:36:44.394Z,981.60
2019-03-24T20:37:44.316Z,981.58
2019-03-24T20:38:44.307Z,981.58
2019-03-24T20:39:44.281Z,981.58
2019-03-24T20:40:44.078Z,981.60
2019-03-24T20:41:44.003Z,981.56
2019-03-24T20:42:43.951Z,981.51
2019-03-24T20:43:43.910Z,981.56
2019-03-24T20:44:43.772Z,981.53
2019-03-24T20:45:43.738Z,981.52
2019-03-24T20:46:43.661Z,981.48
2019-03-24T20:47:43.567Z,981.51
2019-03-24T20:48:43.553Z,981.49
2019-03-24T20:49:43.388Z,981.49
2019-03-24T20:50:43.365Z,981.49
2019-03-24T20:51:43.224Z,981.45
2019-03-24T20:52:43.199Z,981.44
2019-03-24T20:53:43.099Z,981.42
2019-03-24T20:54:43.086Z,981.41
2019-03-24T20:55:42.957Z,981.43
2019-03-24T20:56:42.836Z,981.38
2019-03-24T20:57:42.747Z,981.42
2019-03-24T20:58:42.685Z,981.41
2019-03-24T20:59:42.623Z,981.39
2019-03-24T21:00:42.561Z,981.39
2019-03-24T21:01:42.430Z,981.32
2019-03-24T21:02:42.367Z,981.31
2019-03-24T21:03:42.279Z,981.32
2019-03-24T21:04:42.199Z,981.31
2019-03-24T21:05:42.118Z,981.32
2019-03-24T21:06:42.038Z,981.30
2019-03-24T21:07:41.954Z,981.30
2019-03-24T21:08:41.954Z,981.28
2019-03-24T21:09:41.804Z,981.25
2019-03-24T21:10:41.718Z,981.27
2019-03-24T21:11:41.650Z,981.24
2019-03-24T21:12:41.561Z,981.23
2019-03-24T21:13:41.487Z,981.21
2019-03-24T21:14:41.469Z,981.21
2019-03-24T21:15:41.325Z,981.19
2019-03-24T21:16:41.245Z,981.19
2019-03-24T21:17:41.173Z,981.20
2019-03-24T21:18:41.118Z,981.22
2019-03-24T21:19:41.048Z,981.21
2019-03-24T21:20:40.940Z,981.20
2019-03-24T21:21:40.849Z,981.18
2019-03-24T21:22:40.862Z,981.18
2019-03-24T21:23:40.779Z,981.15
2019-03-24T21:24:40.617Z,981.16
2019-03-24T21:25:40.609Z,981.13
2019-03-24T21:26:40.582Z,981.08
2019-03-24T21:27:40.415Z,981.04
2019-03-24T21:28:40.297Z,981.01
2019-03-24T21:29:40.292Z,981.00
2019-03-24T21:30:40.187Z,980.99
2019-03-24T21:31:40.161Z,981.02
2019-03-24T21:32:40.067Z,981.04
2019-03-24T21:33:39.930Z,981.04
2019-03-24T21:34:39.890Z,981.06
2019-03-24T21:35:39.758Z,981.06
2019-03-24T21:36:39.750Z,981.07
2019-03-24T21:37:39.616Z,981.09
2019-03-24T21:38:39.573Z,981.08
2019-03-24T21:39:39.459Z,981.13
2019-03-24T21:40:39.353Z,981.14
2019-03-24T21:41:39.314Z,981.17
2019-03-24T21:42:39.227Z,981.18
2019-03-24T21:43:39.168Z,981.18
2019-03-24T21:44:39.046Z,981.21
2019-03-24T21:45:38.984Z,981.22
2019-03-24T21:46:38.871Z,981.21
2019-03-24T21:47:38.811Z,981.14
2019-03-24T21:48:38.715Z,981.14
2019-03-24T21:49:38.674Z,981.17
2019-03-24T21:50:38.615Z,981.16
2019-03-24T21:51:38.574Z,981.15
2019-03-24T21:52:38.441Z,981.17
2019-03-24T21:53:40.808Z,981.15
2019-03-24T21:54:38.292Z,981.17
2019-03-24T21:55:38.190Z,981.17
2019-03-24T21:56:38.164Z,981.19
2019-03-24T21:57:38.063Z,981.20
2019-03-24T21:58:37.993Z,981.19
2019-03-24T21:59:38.043Z,981.20
2019-03-24T22:00:37.866Z,981.23
2019-03-24T22:01:37.746Z,981.23
2019-03-24T22:02:37.677Z,981.23
2019-03-24T22:03:37.575Z,981.23
2019-03-24T22:04:37.527Z,981.23
2019-03-24T22:05:37.436Z,981.20
2019-03-24T22:06:37.363Z,981.15
2019-03-24T22:07:37.260Z,981.13
2019-03-24T22:08:37.185Z,981.21
2019-03-24T22:09:37.194Z,981.25
2019-03-24T22:10:37.058Z,981.27
2019-03-24T22:11:36.937Z,981.23
2019-03-24T22:12:36.879Z,981.24
2019-03-24T22:13:36.740Z,981.24
2019-03-24T22:14:36.660Z,981.23
2019-03-24T22:15:36.598Z,981.22
2019-03-24T22:16:36.592Z,981.21
2019-03-24T22:17:36.421Z,981.22
2019-03-24T22:18:36.334Z,981.28
2019-03-24T22:19:38.633Z,981.28
2019-03-24T22:20:36.188Z,981.24
2019-03-24T22:21:36.093Z,981.24
2019-03-24T22:22:36.014Z,981.22
2019-03-24T22:23:35.946Z,981.20
2019-03-24T22:24:35.912Z,981.21
2019-03-24T22:25:35.837Z,981.23
2019-03-24T22:26:35.729Z,981.20
2019-03-24T22:27:35.629Z,981.22
2019-03-24T22:28:35.545Z,981.22
2019-03-24T22:29:35.484Z,981.22
2019-03-24T22:30:35.469Z,981.13
2019-03-24T22:31:35.302Z,981.15
2019-03-24T22:32:35.217Z,981.17
2019-03-24T22:33:35.148Z,981.17
2019-03-24T22:34:35.058Z,981.17
2019-03-24T22:35:34.978Z,981.16
2019-03-24T22:36:34.900Z,981.15
2019-03-24T22:37:34.826Z,981.17
2019-03-24T22:38:34.756Z,981.18
2019-03-24T22:39:34.676Z,981.18
2019-03-24T22:40:34.617Z,981.18
2019-03-24T22:41:34.603Z,981.18
2019-03-24T22:42:34.440Z,981.18
2019-03-24T22:43:34.342Z,981.15
2019-03-24T22:44:34.269Z,981.14
2019-03-24T22:45:34.187Z,981.15
2019-03-24T22:46:34.111Z,981.13
2019-03-24T22:47:34.033Z,981.10
2019-03-24T22:48:34.038Z,981.09
2019-03-24T22:49:33.877Z,981.08
2019-03-24T22:50:33.871Z,981.05
2019-03-24T22:51:33.767Z,981.01
2019-03-24T22:52:33.639Z,980.97
2019-03-24T22:53:33.571Z,980.97
2019-03-24T22:54:33.527Z,980.96
2019-03-24T22:55:33.407Z,980.96
2019-03-24T22:56:33.347Z,980.94
2019-03-24T22:57:33.305Z,980.95
2019-03-24T22:58:33.158Z,980.90
2019-03-24T22:59:33.083Z,980.91
2019-03-24T23:00:33.028Z,980.92
2019-03-24T23:01:32.926Z,980.90
2019-03-24T23:02:32.902Z,980.92
2019-03-24T23:03:32.823Z,980.90
2019-03-24T23:04:32.695Z,980.89
2019-03-24T23:05:32.661Z,980.90
2019-03-24T23:06:32.549Z,980.91
2019-03-24T23:07:32.490Z,980.91
2019-03-24T23:08:32.369Z,980.88
2019-03-24T23:09:32.311Z,980.91
2019-03-24T23:10:32.260Z,980.86
2019-03-24T23:11:32.176Z,980.85
2019-03-24T23:12:32.054Z,980.82
2019-03-24T23:13:32.027Z,980.80
2019-03-24T23:14:31.940Z,980.82
2019-03-24T23:15:31.862Z,980.74
2019-03-24T23:16:31.741Z,980.80
2019-03-24T23:17:31.696Z,980.74
2019-03-24T23:18:31.674Z,980.74
2019-03-24T23:19:31.549Z,980.75
2019-03-24T23:20:31.457Z,980.78
2019-03-24T23:21:31.383Z,980.73
2019-03-24T23:22:31.361Z,980.73
2019-03-24T23:23:31.177Z,980.70
2019-03-24T23:24:31.101Z,980.65
2019-03-24T23:25:31.059Z,980.68
2019-03-24T23:26:31.003Z,980.63
2019-03-24T23:27:30.975Z,980.64
2019-03-24T23:28:30.803Z,980.68
2019-03-24T23:29:30.765Z,980.70
2019-03-24T23:30:30.659Z,980.66
2019-03-24T23:31:30.612Z,980.64
2019-03-24T23:32:30.535Z,980.64
2019-03-24T23:33:30.454Z,980.65
2019-03-24T23:34:30.361Z,980.71
2019-03-24T23:35:30.246Z,980.70
2019-03-24T23:36:30.154Z,980.66
2019-03-24T23:37:30.074Z,980.67
2019-03-24T23:38:30.011Z,980.64
2019-03-24T23:39:29.960Z,980.63
2019-03-24T23:40:29.847Z,980.67
2019-03-24T23:41:29.809Z,980.66
2019-03-24T23:42:29.701Z,980.64
2019-03-24T23:43:29.634Z,980.64
2019-03-24T23:44:29.625Z,980.64
2019-03-24T23:45:29.539Z,980.66
2019-03-24T23:46:29.506Z,980.68
2019-03-24T23:47:29.354Z,980.61
2019-03-24T23:48:29.201Z,980.62
2019-03-24T23:49:29.162Z,980.58
2019-03-24T23:50:29.072Z,980.54
2019-03-24T23:51:28.963Z,980.52
2019-03-24T23:52:28.882Z,980.54
2019-03-24T23:53:28.836Z,980.51
2019-03-24T23:54:28.729Z,980.51
2019-03-24T23:55:28.714Z,980.48
2019-03-24T23:56:28.594Z,980.55
2019-03-24T23:57:28.585Z,980.52
2019-03-24T23:58:40.215Z,980.53